Impacts TAF Board
For situational awareness. Not to be used for flight planning purposes.
IDs:

KHBG - Hattiesburg/Chain Mu, MS, US

Issued at 1725 UTC 23 Jan 2019
Updated at 1822 UTC 23 Jan 2019
Potential Impact None Slight Moderate High
Time1753Z 23/19Z 23/20Z 23/21Z 23/22Z 23/23Z 24/00Z 24/01Z 24/02Z 24/03Z 24/04Z 24/05Z 24/06Z 24/07Z>>
Type OBS PRVL PRVL PRVL PRVL PRVL PRVL PRVL PRVL PRVL PRVL PRVL PRVL PRVL
VIS 10 6 6 6 6 6 6 6 >6 >6 >6 >6 >6 >6
CIG 10 15 15 15 15 15 15 15 15 15 15 15 15 15
Cover OVC OVC OVC OVC OVC OVC OVC OVC OVC OVC OVC OVC OVC OVC
FltCat MVFR MVFR MVFR MVFR MVFR MVFR MVFR MVFR MVFR MVFR MVFR MVFR MVFR MVFR
WX -RA SHRA BR SHRA BR SHRA BR SHRA BR SHRA BR SHRA BR SHRA BR -- -- -- -- -- --
WDir 290 300 300 300 300 300 300 300 310 310 310 310 310 310
WSpd 10 11 11 11 11 11 11 11 10 10 10 10 10 10
WGst -- -- -- -- -- -- -- -- -- -- -- -- -- --
Raw TAF
KHBG 231725Z 2318/2418 24010KT 3SM SHRA VCTS SCT015CB BKN025
  FM231900 30011KT 6SM SHRA BR SCT008 BKN015 OVC050
  FM240200 31010KT P6SM BKN015 OVC025
  FM241300 32006KT P6SM SCT025


Raw METAR
KHBG 231753Z AUTO 29010KT 10SM -RA BKN010 BKN023 OVC085 19/18 A2986 RMK AO2 SLP111 P0044 60118 T01940183 10194 20183 55015
KHBG 231735Z AUTO 21009KT 4SM -RA BR FEW012 BKN023 OVC110 19/18 A2985 RMK AO2 LTG DSNT NE P0044 T01940183
KHBG 231724Z AUTO 21010G19KT 1 1/4SM +RA BR FEW012 BKN027 OVC034 19/18 A2986 RMK AO2 LTG DSNT E P0041 T01890178
KHBG 231708Z AUTO 22009KT 3/4SM +RA BR FEW013 BKN027 OVC036 19/18 A2986 RMK AO2 VIS 1/4V3 P0024 T01890178
KHBG 231653Z AUTO 22010KT 1 1/2SM +RA BR BKN035 BKN055 OVC070 19/18 A2986 RMK AO2 LTG DSNT E SLP108 P0062 T01890178
KHBG 231640Z AUTO 19011KT 1 3/4SM +RA BR BKN037 BKN055 OVC070 19/18 A2988 RMK AO2 LTG DSNT SE P0048 T01890178
KHBG 231634Z AUTO 19009KT 5SM RA BR BKN037 BKN055 OVC070 19/18 A2987 RMK AO2 LTG DSNT SE P0039 T01890178
KHBG 231624Z AUTO 18008KT 2SM +RA BR FEW008 BKN036 OVC065 19/18 A2987 RMK AO2 VIS 1 1/2V5 LTG DSNT SE P0038 T01890178
KHBG 231618Z AUTO 19011KT 1SM VCTS +RA BR FEW008 BKN032 OVC050 19/18 A2988 RMK AO2 LTG DSNT SE P0035 T01890183
KHBG 231612Z AUTO 18008KT 3/4SM VCTS +RA BR FEW008 OVC029 19/18 A2988 RMK AO2 LTG DSNT SE P0029 T01890183
KHBG 231604Z AUTO 17010KT 1 3/4SM VCTS +RA BR SCT008 OVC039 19/18 A2990 RMK AO2 LTG DSNT SE P0008 T01890183
KHBG 231555Z AUTO 22007KT 3SM VCTS -RA BR SCT008 SCT011 OVC039 19/18 A2989 RMK AO2 LTG DSNT SE AND SW P0001 T01890183
KHBG 231550Z AUTO 17008KT 1 3/4SM RA BR SCT008 SCT013 OVC037 19/18 A2988 RMK AO2 VIS 1V4 LTG DSNT SE AND SW PRESFR SLP116 P0010 T01940183
KHBG 231549Z AUTO 16007KT 1 3/4SM RA BR SCT008 SCT013 OVC035 19/18 A2988 RMK AO2 VIS 1V3 LTG DSNT SE AND SW PRESFR P0010
KHBG 231543Z AUTO 20004KT 1 3/4SM RA BR BKN009 BKN032 OVC046 19/18 A2989 RMK AO2 LTG DSNT SE AND SW P0008 T01940183
KHBG 231539Z AUTO 19006KT 2SM +RA BR SCT009 BKN013 OVC038 19/18 A2989 RMK AO2 VIS 1 1/4V3 LTG DSNT SE AND SW P0006 T01940183

METAR Board
Radar Display
Forecast Discussion
For situational awareness. Not to be used for flight planning purposes.